Date,TemperatureHighF,TemperatureAvgF,TemperatureLowF,DewpointHighF,DewpointAvgF,DewpointLowF,HumidityHigh,HumidityAvg,HumidityLow,PressureMaxIn,PressureMinIn,WindSpeedMaxMPH,WindSpeedAvgMPH,GustSpeedMaxMPH,PrecipitationSumIn
2012-12-1,25.2,21.6,19.4,24.4,17.2,8.1,97,84,60,30.72,30.57,3,0,0,0.00
2012-12-2,44.3,32.2,25.2,43.5,31.7,24.3,100,98,96,30.57,30.04,12,0,13,0.28
2012-12-3,48.2,41.9,29.1,46.3,38.8,28.6,98,89,74,30.34,30.03,15,2,19,0.00
2012-12-4,38.6,33.4,27.5,38.6,33.1,26.9,100,99,98,30.35,29.98,2,0,0,0.01
2012-12-5,48.6,38.9,26.5,48.6,33.8,17.4,100,82,63,30.18,29.86,28,5,28,0.12
2012-12-6,32.2,25.9,19.9,19.8,18.1,15.6,93,73,58,30.37,30.17,16,3,20,0.00
2012-12-7,34.7,27.1,18.5,30.8,24.3,17.1,98,90,72,30.33,30.10,5,0,0,0.01
2012-12-8,35.6,32.5,29.5,35.6,32.2,29.0,100,99,98,30.10,29.92,2,0,0,0.01
2012-12-9,39.9,34.7,28.9,37.0,30.9,24.8,100,86,67,30.35,29.99,11,1,0,0.04
2012-12-10,40.4,34.1,31.9,40.2,33.6,30.3,100,98,88,30.22,29.54,8,0,0,0.15
2012-12-11,39.9,33.1,25.9,38.6,30.3,21.5,97,89,81,30.19,29.62,11,1,14,0.01
2012-12-12,36.9,26.7,18.8,24.5,21.6,17.6,97,82,56,30.47,30.19,11,1,13,0.00
2012-12-13,37.9,26.1,18.0,29.7,21.8,16.8,98,85,56,30.52,30.32,7,0,0,0.00
2012-12-14,41.0,30.5,17.0,29.1,23.9,15.7,98,78,47,30.33,30.11,15,1,18,0.00
2012-12-15,35.4,28.0,18.8,26.6,14.2,1.7,77,58,31,30.39,30.22,11,1,15,0.00
2012-12-16,22.2,20.7,19.0,20.9,13.6,6.2,95,75,53,30.39,30.20,4,0,0,0.00
2012-12-17,31.3,26.7,21.9,31.1,25.9,20.6,99,97,95,30.20,29.92,4,0,0,0.00
2012-12-18,37.0,34.7,31.2,37.0,34.4,30.7,100,99,97,29.92,29.50,14,1,14,1.25
2012-12-19,37.2,34.8,32.9,36.5,32.3,30.0,100,91,79,30.10,29.50,17,4,19,0.11
2012-12-20,35.4,32.6,29.1,30.5,28.6,27.1,92,85,78,30.26,30.06,10,1,0,0.00
2012-12-21,49.1,36.7,30.9,48.2,35.3,29.1,99,95,86,30.06,29.06,18,2,24,1.47
2012-12-22,34.6,28.6,20.6,30.9,23.4,14.9,90,81,65,29.66,29.19,27,4,27,0.00
2012-12-23,32.5,26.0,17.6,24.5,18.1,12.2,89,72,56,29.86,29.66,18,3,20,0.00
2012-12-24,31.1,26.0,19.2,25.6,18.2,14.4,88,73,55,30.11,29.85,13,2,16,0.00
2012-12-25,28.7,21.2,15.4,23.5,18.1,11.5,95,88,78,30.32,30.06,12,1,14,0.00
2012-12-26,29.9,20.6,10.2,21.4,13.8,7.2,93,75,56,30.41,30.06,11,1,0,0.00
2012-12-27,30.3,26.5,22.2,29.8,25.4,20.3,98,95,92,30.06,29.50,13,1,13,0.00
2012-12-28,28.2,22.7,18.9,23.8,20.3,17.1,95,90,83,30.08,29.72,19,3,23,0.00
2012-12-29,24.6,21.8,17.7,23.8,20.2,16.0,97,94,88,30.07,29.56,2,0,0,0.00
2012-12-30,23.4,17.8,12.8,22.4,13.3,6.9,96,83,71,30.04,29.55,24,4,31,0.00
2012-12-31,29.3,22.5,13.0,24.1,17.6,7.0,87,81,72,30.06,29.75,13,1,14,0.00